Farmer, Washington
Current Conditions -  °F | °C
As of 6:53 PM on Thursday 18 Dec 2014 (Local Time) from KEPH Reporting Station
Light Rain Light Rain  
Wind Chill: 33°   Ceiling: 1300
Heat Index: 38°   Visibility: 6mi
Dew Point: 36°   Wind: 7mph
Humidity: 93%   Direction: 350°N
Pressure: 29.93"   Gusts: NA
Location:  47.6257°N, 119.744°W
Report Text: KEPH 190253Z AUTO 35006KT 6SM -RA BR OVC013 03/02 A2993 RMK AO2 RAE00B09E19B44 SLP146 P0000 60001 T00330022 57010
Loading
Personal Weather Stations






























Interactive Weather Map New forecast layout! Learn more

10-Day Weather Forecast

Advertisements
Track Severe Weather on mobile